createdAt,value
2018-12-16T00:00:30.641Z,-6.50
2018-12-16T00:02:57.612Z,-6.60
2018-12-16T00:05:24.520Z,-6.70
2018-12-16T00:07:51.560Z,-6.70
2018-12-16T00:10:18.542Z,-6.70
2018-12-16T00:12:45.581Z,-6.80
2018-12-16T00:15:12.760Z,-6.80
2018-12-16T00:17:39.761Z,-6.80
2018-12-16T00:20:06.800Z,-6.90
2018-12-16T00:22:33.839Z,-6.90
2018-12-16T00:25:01.323Z,-7.00
2018-12-16T00:27:28.281Z,-7.00
2018-12-16T00:30:02.580Z,-7.00
2018-12-16T00:32:29.521Z,-7.10
2018-12-16T00:34:56.520Z,-7.20
2018-12-16T00:37:23.741Z,-7.20
2018-12-16T00:39:50.699Z,-7.20
2018-12-16T00:42:17.641Z,-7.30
2018-12-16T00:44:51.681Z,-7.30
2018-12-16T00:47:18.662Z,-7.30
2018-12-16T00:49:45.660Z,-7.30
2018-12-16T00:52:12.620Z,-7.40
2018-12-16T00:54:39.679Z,-7.40
2018-12-16T00:57:06.700Z,-7.40
2018-12-16T00:59:33.781Z,-7.50
2018-12-16T01:02:00.801Z,-7.50
2018-12-16T01:04:27.780Z,-7.50
2018-12-16T01:06:54.781Z,-7.60
2018-12-16T01:09:22.100Z,-7.60
2018-12-16T01:11:49.082Z,-7.60
2018-12-16T01:14:16.141Z,-7.50
2018-12-16T01:16:43.162Z,-7.50
2018-12-16T01:19:10.121Z,-7.60
2018-12-16T01:21:44.062Z,-7.60
2018-12-16T01:24:11.100Z,-7.60
2018-12-16T01:26:38.061Z,-7.60
2018-12-16T01:29:05.001Z,-7.70
2018-12-16T01:31:31.954Z,-7.70
2018-12-16T01:34:06.057Z,-7.80
2018-12-16T01:36:33.015Z,-7.80
2018-12-16T01:38:59.995Z,-7.80
2018-12-16T01:41:26.954Z,-7.90
2018-12-16T01:43:53.895Z,-7.90
2018-12-16T01:46:20.934Z,-7.90
2018-12-16T01:48:47.895Z,-7.90
2018-12-16T01:51:14.955Z,-7.90
2018-12-16T01:53:41.907Z,-7.80
2018-12-16T01:56:08.895Z,-7.80
2018-12-16T01:58:42.717Z,-7.80
2018-12-16T02:01:09.769Z,-7.80
2018-12-16T02:03:36.768Z,-7.80
2018-12-16T02:06:03.929Z,-7.90
2018-12-16T02:08:30.970Z,-7.90
2018-12-16T02:11:04.850Z,-7.90
2018-12-16T02:13:31.849Z,-7.90
2018-12-16T02:15:58.930Z,-7.90
2018-12-16T02:18:25.970Z,-7.90
2018-12-16T02:20:53.052Z,-8.00
2018-12-16T02:23:20.051Z,-8.00
2018-12-16T02:25:47.090Z,-8.00
2018-12-16T02:28:14.189Z,-8.00
2018-12-16T02:30:41.200Z,-8.00
2018-12-16T02:33:08.131Z,-8.10
2018-12-16T02:35:35.169Z,-8.10
2018-12-16T02:38:02.209Z,-8.10
2018-12-16T02:40:29.608Z,-8.10
2018-12-16T02:42:56.649Z,-8.10
2018-12-16T02:45:23.651Z,-8.10
2018-12-16T02:47:50.691Z,-8.10
2018-12-16T02:50:17.649Z,-8.10
2018-12-16T02:52:44.693Z,-8.20
2018-12-16T02:55:11.712Z,-8.20
2018-12-16T02:57:38.772Z,-8.20
2018-12-16T03:00:07.649Z,-8.20
2018-12-16T03:02:34.650Z,-8.30
2018-12-16T03:05:01.573Z,-8.30
2018-12-16T03:07:28.590Z,-8.30
2018-12-16T03:09:55.570Z,-8.40
2018-12-16T03:12:22.635Z,-8.40
2018-12-16T03:14:49.673Z,-8.40
2018-12-16T03:17:16.790Z,-8.40
2018-12-16T03:19:43.799Z,-8.40
2018-12-16T03:22:10.856Z,-8.40
2018-12-16T03:24:37.869Z,-8.50
2018-12-16T03:27:11.970Z,-8.50
2018-12-16T03:29:39.010Z,-8.50
2018-12-16T03:32:05.994Z,-8.60
2018-12-16T03:34:33.049Z,-8.60
2018-12-16T03:37:00.028Z,-8.60
2018-12-16T03:39:27.052Z,-8.60
2018-12-16T03:41:54.049Z,-8.60
2018-12-16T03:44:21.330Z,-8.60
2018-12-16T03:46:48.371Z,-8.70
2018-12-16T03:49:15.472Z,-8.60
2018-12-16T03:51:42.478Z,-8.60
2018-12-16T03:54:09.591Z,-8.60
2018-12-16T03:56:36.611Z,-8.60
2018-12-16T03:59:16.192Z,-8.60
2018-12-16T04:01:47.110Z,-8.50
2018-12-16T04:04:14.297Z,-8.50
2018-12-16T04:06:43.280Z,-8.50
2018-12-16T04:09:10.795Z,-8.50
2018-12-16T04:11:37.789Z,-8.50
2018-12-16T04:14:04.690Z,-8.50
2018-12-16T04:16:31.789Z,-8.60
2018-12-16T04:18:58.791Z,-8.60
2018-12-16T04:21:26.084Z,-8.60
2018-12-16T04:23:53.049Z,-8.60
2018-12-16T04:26:19.990Z,-8.60
2018-12-16T04:28:47.029Z,-8.60
2018-12-16T04:31:13.853Z,-8.60
2018-12-16T04:33:40.849Z,-8.70
2018-12-16T04:36:14.789Z,-8.70
2018-12-16T04:38:41.870Z,-8.70
2018-12-16T04:41:08.849Z,-8.60
2018-12-16T04:43:36.129Z,-8.60
2018-12-16T04:46:03.129Z,-8.60
2018-12-16T04:48:30.128Z,-8.50
2018-12-16T04:50:57.088Z,-8.50
2018-12-16T04:53:24.049Z,-8.50
2018-12-16T04:55:51.509Z,-8.50
2018-12-16T04:58:18.430Z,-8.50
2018-12-16T05:00:45.469Z,-8.40
2018-12-16T05:03:12.529Z,-8.40
2018-12-16T05:05:39.508Z,-8.40
2018-12-16T05:08:06.498Z,-8.30
2018-12-16T05:10:33.469Z,-8.20
2018-12-16T05:13:00.509Z,-7.90
2018-12-16T05:15:27.590Z,-7.40
2018-12-16T05:17:54.548Z,-7.00
2018-12-16T05:20:28.569Z,-6.80
2018-12-16T05:22:55.575Z,-6.60
2018-12-16T05:25:22.609Z,-6.40
2018-12-16T05:27:49.529Z,-6.30
2018-12-16T05:30:16.568Z,-6.10
2018-12-16T05:32:43.500Z,-6.00
2018-12-16T05:35:10.529Z,-5.90
2018-12-16T05:37:37.549Z,-5.90
2018-12-16T05:40:04.729Z,-5.80
2018-12-16T05:42:31.689Z,-5.80
2018-12-16T05:44:58.689Z,-5.90
2018-12-16T05:47:25.669Z,-5.90
2018-12-16T05:49:53.230Z,-6.00
2018-12-16T05:52:20.212Z,-6.00
2018-12-16T05:54:47.168Z,-6.00
2018-12-16T05:57:14.168Z,-6.00
2018-12-16T05:59:41.149Z,-5.90
2018-12-16T06:02:08.091Z,-6.00
2018-12-16T06:04:35.069Z,-6.10
2018-12-16T06:07:02.110Z,-6.10
2018-12-16T06:09:29.109Z,-6.20
2018-12-16T06:11:56.089Z,-6.20
2018-12-16T06:14:23.069Z,-6.20
2018-12-16T06:16:50.489Z,-6.30
2018-12-16T06:19:17.469Z,-6.30
2018-12-16T06:21:44.449Z,-6.40
2018-12-16T06:24:11.709Z,-6.40
2018-12-16T06:26:38.688Z,-6.40
2018-12-16T06:29:13.048Z,-6.40
2018-12-16T06:31:39.869Z,-6.50
2018-12-16T06:34:06.832Z,-6.50
2018-12-16T06:36:33.859Z,-6.60
2018-12-16T06:39:01.408Z,-6.60
2018-12-16T06:41:28.822Z,-6.60
2018-12-16T06:43:56.088Z,-6.50
2018-12-16T06:46:23.040Z,-6.50
2018-12-16T06:48:57.020Z,-6.50
2018-12-16T06:51:23.979Z,-6.50
2018-12-16T06:53:50.975Z,-6.40
2018-12-16T06:56:18.076Z,-6.40
2018-12-16T06:58:45.054Z,-6.40
2018-12-16T07:01:12.056Z,-6.30
2018-12-16T07:03:39.042Z,-6.30
2018-12-16T07:06:06.115Z,-6.30
2018-12-16T07:08:33.089Z,-6.30
2018-12-16T07:11:00.090Z,-6.30
2018-12-16T07:13:27.028Z,-6.20
2018-12-16T07:15:54.309Z,-6.20
2018-12-16T07:18:21.170Z,-6.10
2018-12-16T07:20:48.159Z,-6.10
2018-12-16T07:23:15.182Z,-6.00
2018-12-16T07:25:42.042Z,-5.90
2018-12-16T07:28:09.075Z,-5.80
2018-12-16T07:30:43.055Z,-5.80
2018-12-16T07:33:10.142Z,-5.70
2018-12-16T07:35:37.329Z,-5.70
2018-12-16T07:38:04.429Z,-5.70
2018-12-16T07:40:31.426Z,-5.60
2018-12-16T07:42:58.434Z,-5.60
2018-12-16T07:45:25.510Z,-5.50
2018-12-16T07:47:52.549Z,-5.40
2018-12-16T07:50:19.546Z,-5.30
2018-12-16T07:52:46.587Z,-5.10
2018-12-16T07:55:13.997Z,-4.90
2018-12-16T07:57:41.103Z,-4.70
2018-12-16T08:00:09.223Z,-4.50
2018-12-16T08:02:36.326Z,-4.40
2018-12-16T08:05:05.166Z,-4.30
2018-12-16T08:07:32.268Z,-4.20
2018-12-16T08:09:59.280Z,-4.10
2018-12-16T08:12:33.040Z,-4.00
2018-12-16T08:14:59.865Z,-4.00
2018-12-16T08:17:26.900Z,-4.00
2018-12-16T08:19:53.829Z,-4.00
2018-12-16T08:22:20.989Z,-4.00
2018-12-16T08:24:47.952Z,-4.00
2018-12-16T08:27:14.991Z,-4.00
2018-12-16T08:29:42.111Z,-3.90
2018-12-16T08:32:09.420Z,-3.80
2018-12-16T08:34:36.480Z,-3.70
2018-12-16T08:37:03.513Z,-3.60
2018-12-16T08:39:30.513Z,-3.50
2018-12-16T08:42:04.352Z,-3.50
2018-12-16T08:44:31.434Z,-3.50
2018-12-16T08:46:58.309Z,-3.40
2018-12-16T08:49:25.296Z,-3.30
2018-12-16T08:51:52.273Z,-3.20
2018-12-16T08:54:19.313Z,-3.10
2018-12-16T08:56:46.164Z,-3.00
2018-12-16T08:59:13.230Z,-2.90
2018-12-16T09:01:47.447Z,-2.90
2018-12-16T09:04:14.570Z,-2.80
2018-12-16T09:06:41.571Z,-2.80
2018-12-16T09:09:09.510Z,-2.70
2018-12-16T09:11:36.530Z,-2.60
2018-12-16T09:14:03.600Z,-2.60
2018-12-16T09:16:30.464Z,-2.70
2018-12-16T09:18:57.490Z,-2.60
2018-12-16T09:21:25.012Z,-2.70
2018-12-16T09:23:51.912Z,-2.60
2018-12-16T09:26:18.991Z,-2.50
2018-12-16T09:28:45.964Z,-2.40
2018-12-16T09:31:13.009Z,-2.20
2018-12-16T09:33:39.989Z,-2.20
2018-12-16T09:36:06.989Z,-2.10
2018-12-16T09:38:33.933Z,-2.00
2018-12-16T09:41:01.913Z,-1.90
2018-12-16T09:43:28.820Z,-1.80
2018-12-16T09:45:55.661Z,-1.70
2018-12-16T09:48:22.648Z,-1.60
2018-12-16T09:50:50.488Z,-1.40
2018-12-16T09:53:20.192Z,-1.30
2018-12-16T10:43:57.261Z,-0.40
2018-12-16T10:46:24.451Z,-0.60
2018-12-16T10:48:51.320Z,-0.50
2018-12-16T10:51:18.539Z,-0.50
2018-12-16T10:53:45.678Z,-0.40
2018-12-16T10:56:12.797Z,-0.40
2018-12-16T10:58:39.859Z,-0.30
2018-12-16T11:01:13.254Z,-0.20
2018-12-16T11:03:40.316Z,-0.20
2018-12-16T11:06:07.817Z,-0.10
2018-12-16T11:08:35.475Z,-0.10
2018-12-16T11:11:02.635Z,-0.10
2018-12-16T11:13:29.876Z,0.00
2018-12-16T11:16:03.835Z,0.10
2018-12-16T11:18:31.277Z,0.20
2018-12-16T11:20:58.415Z,0.20
2018-12-16T11:23:25.555Z,0.30
2018-12-16T11:25:52.716Z,0.40
2018-12-16T11:28:19.876Z,0.40
2018-12-16T11:30:46.988Z,0.50
2018-12-16T11:33:21.060Z,0.50
2018-12-16T11:35:48.216Z,0.50
2018-12-16T11:38:15.456Z,0.40
2018-12-16T11:40:49.439Z,0.40
2018-12-16T11:43:23.919Z,0.50
2018-12-16T11:45:51.037Z,0.50
2018-12-16T11:48:18.236Z,0.50
2018-12-16T11:50:46.019Z,0.60
2018-12-16T11:53:13.175Z,0.70
2018-12-16T11:55:40.636Z,0.80
2018-12-16T11:58:07.736Z,0.80
2018-12-16T12:00:34.917Z,0.80
2018-12-16T12:03:02.015Z,0.80
2018-12-16T12:05:29.246Z,0.70
2018-12-16T12:07:56.542Z,0.60
2018-12-16T12:10:23.660Z,0.60
2018-12-16T12:12:50.724Z,0.60
2018-12-16T12:15:17.920Z,0.60
2018-12-16T12:17:45.005Z,0.70
2018-12-16T12:20:12.519Z,0.60
2018-12-16T12:22:39.727Z,0.70
2018-12-16T12:25:06.897Z,0.60
2018-12-16T12:27:34.078Z,0.60
2018-12-16T12:30:01.222Z,0.60
2018-12-16T12:32:28.360Z,0.60
2018-12-16T12:34:55.448Z,0.60
2018-12-16T12:37:23.008Z,0.50
2018-12-16T12:39:50.128Z,0.50
2018-12-16T12:42:17.288Z,0.60
2018-12-16T12:44:44.465Z,0.60
2018-12-16T12:47:11.598Z,0.60
2018-12-16T12:49:44.898Z,0.60
2018-12-16T12:52:08.730Z,0.60
2018-12-16T12:54:35.833Z,0.50
2018-12-16T12:57:03.043Z,0.50
2018-12-16T12:59:30.035Z,0.40
2018-12-16T13:01:57.085Z,0.50
2018-12-16T13:04:24.205Z,0.50
2018-12-16T13:06:58.393Z,0.40
2018-12-16T13:09:25.425Z,0.40
2018-12-16T13:11:52.642Z,0.30
2018-12-16T13:14:26.660Z,0.20
2018-12-16T13:16:53.760Z,0.10
2018-12-16T13:19:21.166Z,0.00
2018-12-16T13:21:48.235Z,0.00
2018-12-16T13:24:15.247Z,0.00
2018-12-16T13:26:42.403Z,-0.10
2018-12-16T13:29:09.581Z,-0.10
2018-12-16T13:31:36.440Z,-0.10
2018-12-16T13:34:03.674Z,-0.10
2018-12-16T13:36:30.915Z,-0.10
2018-12-16T13:38:58.134Z,-0.10
2018-12-16T13:41:25.444Z,0.00
2018-12-16T13:43:52.639Z,0.00
2018-12-16T13:46:19.819Z,0.00
2018-12-16T13:48:47.008Z,-0.10
2018-12-16T13:51:14.099Z,0.00
2018-12-16T13:53:41.162Z,-0.10
2018-12-16T13:56:08.345Z,-0.10
2018-12-16T13:58:35.394Z,-0.20
2018-12-16T14:01:02.588Z,-0.20
2018-12-16T14:03:29.682Z,-0.20
2018-12-16T14:05:56.902Z,-0.30
2018-12-16T14:08:23.977Z,-0.30
2018-12-16T14:10:58.376Z,-0.30
2018-12-16T14:13:25.424Z,-0.20
2018-12-16T14:15:52.759Z,-0.30
2018-12-16T14:18:20.193Z,-0.30
2018-12-16T14:20:47.378Z,-0.40
2018-12-16T14:23:14.393Z,-0.40
2018-12-16T14:25:47.817Z,-0.50
2018-12-16T14:28:10.664Z,-0.50
2018-12-16T14:30:37.679Z,-0.60
2018-12-16T14:33:04.862Z,-0.50
2018-12-16T14:35:31.995Z,-0.50
2018-12-16T14:37:59.366Z,-0.50
2018-12-16T14:40:26.393Z,-0.50
2018-12-16T14:42:53.613Z,-0.50
2018-12-16T14:48:14.514Z,-0.60
2018-12-16T14:50:41.654Z,-0.60
2018-12-16T14:53:08.855Z,-0.70
2018-12-16T14:55:35.954Z,-0.70
2018-12-16T14:58:03.154Z,-0.70
2018-12-16T15:00:30.353Z,-0.70
2018-12-16T15:02:57.474Z,-0.70
2018-12-16T15:05:24.607Z,-0.80
2018-12-16T15:07:52.055Z,-0.80
2018-12-16T15:10:19.233Z,-0.80
2018-12-16T15:12:46.374Z,-0.80
2018-12-16T15:15:13.493Z,-0.80
2018-12-16T15:17:42.893Z,-0.80
2018-12-16T15:20:09.857Z,-0.90
2018-12-16T15:22:37.280Z,-0.90
2018-12-16T15:25:05.176Z,-0.90
2018-12-16T15:27:32.237Z,-0.90
2018-12-16T15:29:59.376Z,-0.90
2018-12-16T15:32:26.465Z,-0.90
2018-12-16T15:34:53.597Z,-0.90
2018-12-16T15:37:20.738Z,-1.00
2018-12-16T15:39:47.878Z,-1.00
2018-12-16T15:42:14.919Z,-0.90
2018-12-16T15:44:48.997Z,-1.00
2018-12-16T15:47:16.137Z,-1.00
2018-12-16T15:49:43.341Z,-1.00
2018-12-16T15:52:10.518Z,-1.00
2018-12-16T15:54:37.677Z,-1.00
2018-12-16T15:57:04.857Z,-1.00
2018-12-16T15:59:31.970Z,-0.90
2018-12-16T16:02:06.040Z,-0.90
2018-12-16T16:04:33.198Z,-1.00
2018-12-16T16:07:00.563Z,-1.00
2018-12-16T16:09:27.657Z,-1.00
2018-12-16T16:11:54.795Z,-1.00
2018-12-16T16:14:21.916Z,-1.00
2018-12-16T16:16:49.037Z,-1.00
2018-12-16T16:19:17.022Z,-1.00
2018-12-16T16:21:44.102Z,-1.00
2018-12-16T16:24:11.241Z,-1.00
2018-12-16T16:26:38.431Z,-0.90
2018-12-16T16:29:06.141Z,-0.90
2018-12-16T16:31:33.352Z,-0.90
2018-12-16T16:34:00.484Z,-0.90
2018-12-16T16:36:27.724Z,-0.90
2018-12-16T16:38:54.904Z,-0.90
2018-12-16T16:41:22.021Z,-0.90
2018-12-16T16:43:49.101Z,-0.90
2018-12-16T16:46:16.391Z,-0.90
2018-12-16T16:48:43.533Z,-0.90
2018-12-16T16:51:10.991Z,-0.90
2018-12-16T16:53:38.124Z,-0.90
2018-12-16T16:56:05.335Z,-0.90
2018-12-16T16:58:32.633Z,-0.90
2018-12-16T17:00:59.933Z,-1.00
2018-12-16T17:03:34.193Z,-1.00
2018-12-16T17:06:01.394Z,-1.00
2018-12-16T17:08:28.655Z,-1.00
2018-12-16T17:10:55.915Z,-1.00
2018-12-16T17:13:23.155Z,-1.10
2018-12-16T17:15:57.215Z,-1.10
2018-12-16T17:18:24.435Z,-1.10
2018-12-16T17:20:51.654Z,-1.10
2018-12-16T17:23:18.816Z,-1.20
2018-12-16T17:25:48.406Z,-1.10
2018-12-16T17:28:15.195Z,-1.10
2018-12-16T17:30:42.395Z,-1.10
2018-12-16T17:33:09.555Z,-1.20
2018-12-16T17:35:36.814Z,-1.10
2018-12-16T17:38:03.909Z,-1.10
2018-12-16T17:40:31.094Z,-1.20
2018-12-16T17:42:58.254Z,-1.10
2018-12-16T17:45:25.418Z,-1.20
2018-12-16T17:47:52.675Z,-1.20
2018-12-16T17:50:19.975Z,-1.20
2018-12-16T17:52:47.157Z,-1.20
2018-12-16T17:55:14.298Z,-1.20
2018-12-16T17:57:41.375Z,-1.20
2018-12-16T18:00:09.695Z,-1.20
2018-12-16T18:02:36.796Z,-1.20
2018-12-16T18:05:05.218Z,-1.20
2018-12-16T18:07:32.395Z,-1.10
2018-12-16T18:09:59.475Z,-1.10
2018-12-16T18:12:26.715Z,-1.10
2018-12-16T18:14:53.794Z,-1.10
2018-12-16T18:17:20.957Z,-1.10
2018-12-16T18:19:48.157Z,-1.10
2018-12-16T18:22:15.276Z,-1.10
2018-12-16T18:24:42.534Z,-1.00
2018-12-16T18:27:09.735Z,-1.10
2018-12-16T18:29:36.734Z,-1.10
2018-12-16T18:32:03.875Z,-1.10
2018-12-16T18:34:31.335Z,-1.10
2018-12-16T18:36:58.457Z,-1.10
2018-12-16T18:39:25.652Z,-1.10
2018-12-16T18:41:52.975Z,-1.20
2018-12-16T18:44:20.096Z,-1.20
2018-12-16T18:46:47.154Z,-1.20
2018-12-16T18:49:14.314Z,-1.20
2018-12-16T18:51:41.277Z,-1.20
2018-12-16T18:54:08.414Z,-1.20
2018-12-16T18:56:35.498Z,-1.20
2018-12-16T18:59:02.657Z,-1.20
2018-12-16T19:01:29.698Z,-1.10
2018-12-16T19:03:56.954Z,-1.20
2018-12-16T19:06:24.155Z,-1.10
2018-12-16T19:08:51.296Z,-1.10
2018-12-16T19:11:18.514Z,-1.10
2018-12-16T19:13:45.713Z,-1.10
2018-12-16T19:16:12.939Z,-1.00
2018-12-16T19:18:40.600Z,-1.00
2018-12-16T19:21:07.779Z,-1.00
2018-12-16T19:23:34.960Z,-1.00
2018-12-16T19:26:02.080Z,-1.00
2018-12-16T19:28:29.460Z,-1.00
2018-12-16T19:30:56.499Z,-1.00
2018-12-16T19:33:23.648Z,-1.00
2018-12-16T19:35:50.749Z,-1.10
2018-12-16T19:38:17.926Z,-1.10
2018-12-16T19:40:45.071Z,-1.10
2018-12-16T19:43:12.166Z,-1.10
2018-12-16T19:45:46.226Z,-1.10
2018-12-16T19:48:13.468Z,-1.10
2018-12-16T19:50:40.587Z,-1.10
2018-12-16T19:53:07.747Z,-1.10
2018-12-16T19:55:34.886Z,-1.10
2018-12-16T19:58:02.426Z,-1.00
2018-12-16T20:00:29.585Z,-1.00
2018-12-16T20:02:56.786Z,-1.00
2018-12-16T20:05:23.967Z,-0.90
2018-12-16T20:07:51.186Z,-0.90
2018-12-16T20:10:18.426Z,-0.90
2018-12-16T20:12:45.625Z,-0.90
2018-12-16T20:15:13.365Z,-0.90
2018-12-16T20:17:40.626Z,-0.80
2018-12-16T20:20:08.131Z,-0.80
2018-12-16T20:22:35.501Z,-0.80
2018-12-16T20:25:03.187Z,-0.80
2018-12-16T20:27:30.367Z,-0.80
2018-12-16T20:29:58.286Z,-0.80
2018-12-16T20:32:25.588Z,-0.80
2018-12-16T20:34:52.907Z,-0.90
2018-12-16T20:37:20.106Z,-0.80
2018-12-16T20:39:47.248Z,-0.80
2018-12-16T20:42:14.447Z,-0.80
2018-12-16T20:44:41.587Z,-0.70
2018-12-16T20:47:08.848Z,-0.70
2018-12-16T20:49:36.246Z,-0.70
2018-12-16T20:52:03.526Z,-0.80
2018-12-16T20:54:30.707Z,-0.80
2018-12-16T20:56:57.886Z,-0.70
2018-12-16T20:59:25.027Z,-0.70
2018-12-16T21:01:52.187Z,-0.70
2018-12-16T21:04:19.473Z,-0.70
2018-12-16T21:06:47.006Z,-0.70
2018-12-16T21:09:14.246Z,-0.70
2018-12-16T21:11:47.434Z,-0.70
2018-12-16T21:14:20.546Z,-0.70
2018-12-16T21:20:00.007Z,-0.70
2018-12-16T21:22:27.166Z,-0.70
2018-12-16T21:24:54.309Z,-0.70
2018-12-16T21:27:25.916Z,-0.70
2018-12-16T21:29:51.196Z,-0.70
2018-12-16T21:32:18.347Z,-0.60
2018-12-16T21:34:45.507Z,-0.60
2018-12-16T21:37:12.586Z,-0.60
2018-12-16T21:39:39.726Z,-0.60
2018-12-16T21:42:06.866Z,-0.60
2018-12-16T21:44:34.128Z,-0.60
2018-12-16T21:47:01.266Z,-0.60
2018-12-16T21:49:28.446Z,-0.60
2018-12-16T21:51:55.625Z,-0.60
2018-12-16T21:54:22.748Z,-0.60
2018-12-16T21:56:50.346Z,-0.60
2018-12-16T21:59:17.509Z,-0.50
2018-12-16T22:01:44.706Z,-0.50
2018-12-16T22:04:11.986Z,-0.50
2018-12-16T22:06:39.187Z,-0.50
2018-12-16T22:09:07.086Z,-0.40
2018-12-16T22:11:34.247Z,-0.50
2018-12-16T22:14:01.346Z,-0.50
2018-12-16T22:16:28.528Z,-0.50
2018-12-16T22:18:55.685Z,-0.50
2018-12-16T22:21:22.887Z,-0.50
2018-12-16T22:23:49.905Z,-0.50
2018-12-16T22:26:17.085Z,-0.50
2018-12-16T22:28:44.167Z,-0.50
2018-12-16T22:31:11.487Z,-0.50
2018-12-16T22:33:38.686Z,-0.50
2018-12-16T22:36:05.806Z,-0.50
2018-12-16T22:38:32.927Z,-0.50
2018-12-16T22:41:00.087Z,-0.50
2018-12-16T22:43:27.227Z,-0.50
2018-12-16T22:45:54.307Z,-0.50
2018-12-16T22:48:21.522Z,-0.50
2018-12-16T22:50:48.725Z,-0.50
2018-12-16T22:53:15.886Z,-0.50
2018-12-16T22:55:43.049Z,-0.50
2018-12-16T22:58:10.225Z,-0.50
2018-12-16T23:03:44.947Z,-0.50
2018-12-16T23:06:12.128Z,-0.50
2018-12-16T23:08:39.249Z,-0.50
2018-12-16T23:11:06.445Z,-0.50
2018-12-16T23:13:33.646Z,-0.60
2018-12-16T23:16:00.866Z,-0.60
2018-12-16T23:18:28.026Z,-0.60
2018-12-16T23:20:55.246Z,-0.60
2018-12-16T23:23:22.388Z,-0.60
2018-12-16T23:25:49.586Z,-0.60
2018-12-16T23:28:16.885Z,-0.60
2018-12-16T23:30:43.986Z,-0.60
2018-12-16T23:33:11.185Z,-0.60
2018-12-16T23:35:38.306Z,-0.60
2018-12-16T23:38:05.428Z,-0.70
2018-12-16T23:40:32.626Z,-0.70
2018-12-16T23:43:00.045Z,-0.80
2018-12-16T23:45:27.246Z,-0.80
2018-12-16T23:47:54.405Z,-0.90
2018-12-16T23:50:21.587Z,-0.90
2018-12-16T23:52:48.805Z,-1.00
2018-12-16T23:55:15.965Z,-1.00
2018-12-16T23:57:43.045Z,-1.10
